Ashton-in-Makerfield, United Kingdom
Current Conditions -  °F | °C
As of 10:20 PM on Tuesday 21 Oct 2014 (Local Time) from EGGP Reporting Station
Rain Showers Rain Showers  
Wind Chill: 50°   Ceiling: Unl
Heat Index: 50°   Visibility: 6mi
Dew Point: 39°   Wind: 25mph
Humidity: 66%   Direction: 290°WNW
Pressure: 30.06"   Gusts: 38mph
Location:  53.48°N, 2.64°W
Report Text: EGGP 212120Z 29022G33KT 9999 -SHRA FEW031 SCT040 10/04 Q1018
Loading
Personal Weather Stations






























Interactive Weather Map
Tropical Storm Tracking
New forecast layout! Learn more

10-Day Weather Forecast

Advertisements
Track Severe Weather on mobile